Time;durP1;ratioP1;P1;durP2;ratioP2;P2;SDS_P1;SDS_P2;PMS_P1;PMS_P2;Temp;Humidity;BMP_temperature;BMP_pressure;BME280_temperature;BME280_humidity;BME280_pressure;Samples;Min_cycle;Max_cycle;Signal;HPM_P1;HPM_P2
2020/12/04 00:00:23;;;;;;;1.43;1.33;;;7.80;99.90;;;;;;5052689;28;20187;-88
2020/12/04 00:02:49;;;;;;;1.33;1.23;;;7.80;99.90;;;;;;5055024;28;20204;-87
2020/12/04 00:05:15;;;;;;;1.37;1.27;;;7.80;99.90;;;;;;5036580;28;20394;-87
2020/12/04 00:07:40;;;;;;;1.43;1.20;;;7.90;99.90;;;;;;5051585;28;20255;-87
2020/12/04 00:10:06;;;;;;;1.40;1.30;;;7.90;99.90;;;;;;5052360;28;20549;-88
2020/12/04 00:12:37;;;;;;;1.30;1.20;;;7.90;99.90;;;;;;5036186;28;20267;-87
2020/12/04 00:15:06;;;;;;;1.40;1.30;;;7.90;99.90;;;;;;5037555;28;20211;-88
2020/12/04 00:17:32;;;;;;;1.10;1.10;;;7.80;99.90;;;;;;5038113;28;20172;-87
2020/12/04 00:19:57;;;;;;;1.73;1.30;;;7.80;99.90;;;;;;5055832;28;20218;-87
2020/12/04 00:22:23;;;;;;;8.23;1.60;;;7.90;99.90;;;;;;5024045;28;20211;-88
2020/12/04 00:24:49;;;;;;;1.30;1.20;;;7.90;99.90;;;;;;5023325;28;20557;-87
2020/12/04 00:27:15;;;;;;;1.30;1.20;;;7.90;99.90;;;;;;5041985;28;20195;-87
2020/12/04 00:29:41;;;;;;;1.53;1.43;;;8.00;99.90;;;;;;5040788;28;20179;-87
2020/12/04 00:32:06;;;;;;;2.73;1.50;;;7.90;99.90;;;;;;5025164;28;20182;-86
2020/12/04 00:34:32;;;;;;;2.63;1.40;;;7.90;99.90;;;;;;5041714;28;20580;-87
2020/12/04 00:36:59;;;;;;;2.60;1.30;;;7.90;99.90;;;;;;5024131;28;20652;-88
2020/12/04 00:39:25;;;;;;;1.10;1.00;;;7.80;99.90;;;;;;5057407;28;20242;-87
2020/12/04 00:41:51;;;;;;;1.23;1.13;;;7.70;99.90;;;;;;5044205;28;20160;-87
2020/12/04 00:44:16;;;;;;;1.10;1.00;;;7.80;99.90;;;;;;5043835;28;20187;-87
2020/12/04 00:46:42;;;;;;;1.40;1.30;;;7.80;99.90;;;;;;5041600;28;20172;-88
2020/12/04 00:49:08;;;;;;;1.17;1.13;;;7.90;99.90;;;;;;5037573;28;20259;-87
2020/12/04 00:51:33;;;;;;;1.17;1.07;;;7.80;99.90;;;;;;5037897;28;20170;-87
2020/12/04 00:54:00;;;;;;;1.20;1.10;;;7.90;99.90;;;;;;5021311;28;20645;-87
2020/12/04 00:56:33;;;;;;;1.00;1.00;;;7.90;99.90;;;;;;5052106;28;20168;-87
2020/12/04 00:59:00;;;;;;;1.27;1.17;;;7.80;99.90;;;;;;5060721;28;20157;-87
2020/12/04 01:01:26;;;;;;;1.30;1.10;;;7.80;99.90;;;;;;5055608;28;20271;-87
2020/12/04 01:03:52;;;;;;;1.67;1.10;;;7.80;99.90;;;;;;5053519;28;20210;-88
2020/12/04 01:06:18;;;;;;;1.20;1.00;;;7.80;99.90;;;;;;5054050;28;20168;-87
2020/12/04 01:08:44;;;;;;;0.80;0.80;;;7.80;99.90;;;;;;5053662;28;20281;-86
2020/12/04 01:11:11;;;;;;;1.17;0.97;;;7.80;99.90;;;;;;5036675;28;20200;-86
2020/12/04 01:13:37;;;;;;;0.80;0.80;;;7.80;99.90;;;;;;5036386;28;20191;-86
2020/12/04 01:16:02;;;;;;;1.20;1.10;;;7.80;99.90;;;;;;5035603;28;20199;-87
2020/12/04 01:18:29;;;;;;;1.03;0.97;;;7.90;99.90;;;;;;5035377;28;20613;-86
2020/12/04 01:20:55;;;;;;;0.80;0.80;;;7.80;99.90;;;;;;5036534;28;20202;-87
2020/12/04 01:23:21;;;;;;;1.00;0.90;;;7.80;99.90;;;;;;5051682;28;20172;-87
2020/12/04 01:25:50;;;;;;;0.83;0.83;;;7.80;99.90;;;;;;5051581;28;20176;-88
2020/12/04 01:28:15;;;;;;;1.30;1.00;;;7.80;99.90;;;;;;5035009;28;20588;-88
2020/12/04 01:30:44;;;;;;;2.67;0.87;;;7.80;99.90;;;;;;5034231;28;20164;-87
2020/12/04 01:33:09;;;;;;;1.17;0.90;;;7.80;99.90;;;;;;5051857;28;20176;-87
2020/12/04 01:35:35;;;;;;;0.73;0.73;;;7.80;99.90;;;;;;5034910;28;20541;-86
2020/12/04 01:38:01;;;;;;;1.10;0.83;;;7.80;99.90;;;;;;5018659;28;20584;-87
2020/12/04 01:40:27;;;;;;;1.27;1.10;;;7.80;99.90;;;;;;5051536;28;20537;-87
2020/12/04 01:42:53;;;;;;;2.47;0.80;;;7.90;99.90;;;;;;5034580;28;20246;-87
2020/12/04 01:45:18;;;;;;;0.90;0.90;;;7.90;99.90;;;;;;5051088;28;20176;-87
2020/12/04 01:47:44;;;;;;;0.80;0.80;;;7.90;99.90;;;;;;5035050;28;20168;-87
2020/12/04 01:50:10;;;;;;;0.90;0.90;;;7.90;99.90;;;;;;5051292;28;20749;-88
2020/12/04 01:52:36;;;;;;;1.23;1.13;;;8.00;99.90;;;;;;5034805;28;20200;-87
2020/12/04 01:55:02;;;;;;;0.83;0.83;;;8.00;99.90;;;;;;5050813;28;20211;-86
2020/12/04 01:57:34;;;;;;;1.30;0.90;;;8.00;99.90;;;;;;5051261;28;20240;-86
2020/12/04 01:59:59;;;;;;;0.90;0.90;;;8.00;99.90;;;;;;5018389;28;20179;-87
2020/12/04 02:02:25;;;;;;;1.03;1.03;;;8.00;99.90;;;;;;5051448;28;20184;-86
2020/12/04 02:04:51;;;;;;;0.97;0.97;;;8.10;99.90;;;;;;5034536;28;20172;-86
2020/12/04 02:07:28;;;;;;;3.63;1.03;;;8.00;99.90;;;;;;5034760;28;20629;-86
2020/12/04 02:10:02;;;;;;;1.33;0.93;;;8.10;99.90;;;;;;5051452;28;20164;-87
2020/12/04 02:12:29;;;;;;;1.20;1.10;;;8.10;99.90;;;;;;5051321;28;20168;-87
2020/12/04 02:14:55;;;;;;;0.90;0.90;;;8.10;99.90;;;;;;5035748;28;20251;-86
2020/12/04 02:17:29;;;;;;;1.13;1.03;;;8.20;99.90;;;;;;5034860;28;20208;-87
2020/12/04 02:19:55;;;;;;;1.47;1.20;;;8.20;99.90;;;;;;5068407;28;20168;-86
2020/12/04 02:22:21;;;;;;;1.10;1.00;;;8.20;99.90;;;;;;5057881;28;20179;-84
2020/12/04 02:24:46;;;;;;;1.23;1.13;;;8.20;99.90;;;;;;5057775;28;20207;-86
2020/12/04 02:27:15;;;;;;;1.30;1.20;;;8.20;99.90;;;;;;5055951;28;20179;-85
2020/12/04 02:29:41;;;;;;;0.70;0.70;;;8.20;99.90;;;;;;5053852;28;20176;-87
2020/12/04 02:32:14;;;;;;;1.17;0.90;;;8.20;99.90;;;;;;5035607;28;20172;-86
2020/12/04 02:34:40;;;;;;;0.83;0.73;;;8.20;99.90;;;;;;5035450;28;20609;-86
2020/12/04 02:37:07;;;;;;;1.30;1.20;;;8.20;99.90;;;;;;5035163;28;20206;-86
2020/12/04 02:39:34;;;;;;;0.80;0.80;;;8.30;99.90;;;;;;5018529;28;20688;-87
2020/12/04 02:42:00;;;;;;;1.57;0.93;;;8.30;99.90;;;;;;5018021;28;20180;-86
2020/12/04 02:44:26;;;;;;;0.80;0.80;;;8.30;99.90;;;;;;5034793;28;20660;-87
2020/12/04 02:46:52;;;;;;;0.60;0.60;;;8.30;99.90;;;;;;5017697;28;20258;-86
2020/12/04 02:49:20;;;;;;;1.47;1.00;;;8.30;99.90;;;;;;5017694;28;20183;-86
2020/12/04 02:51:50;;;;;;;1.37;0.83;;;8.30;99.90;;;;;;5001768;28;20172;-86
2020/12/04 02:54:16;;;;;;;0.80;0.80;;;8.30;99.90;;;;;;5033428;28;20204;-86
2020/12/04 02:56:43;;;;;;;0.73;0.73;;;8.40;99.90;;;;;;5033315;28;20637;-87
2020/12/04 02:59:10;;;;;;;0.97;0.93;;;8.40;99.90;;;;;;5033543;28;20172;-87
2020/12/04 03:01:36;;;;;;;0.97;0.67;;;8.40;99.90;;;;;;5017379;28;20245;-86
2020/12/04 03:04:02;;;;;;;0.83;0.63;;;8.40;99.90;;;;;;5048216;28;20167;-85
2020/12/04 03:06:28;;;;;;;0.83;0.50;;;8.30;99.90;;;;;;5058149;28;20163;-86
2020/12/04 03:08:54;;;;;;;2.13;0.63;;;8.20;99.90;;;;;;5057462;28;20148;-87
2020/12/04 03:11:25;;;;;;;0.73;0.70;;;8.10;99.90;;;;;;5043018;28;20690;-86
2020/12/04 03:13:51;;;;;;;1.43;0.67;;;8.10;99.90;;;;;;5016811;28;20181;-85
2020/12/04 03:16:17;;;;;;;1.63;0.60;;;8.10;99.90;;;;;;5034271;28;20176;-86
2020/12/04 03:18:43;;;;;;;0.60;0.60;;;8.20;99.90;;;;;;5050158;28;20648;-86
2020/12/04 03:21:09;;;;;;;0.73;0.57;;;8.30;99.90;;;;;;5043541;28;20180;-86
2020/12/04 03:23:35;;;;;;;0.77;0.50;;;8.30;99.90;;;;;;5057409;28;20176;-85
2020/12/04 03:26:01;;;;;;;1.13;0.63;;;8.40;99.90;;;;;;5055243;28;20171;-87
2020/12/04 03:28:26;;;;;;;0.87;0.50;;;8.50;99.90;;;;;;5034479;28;20172;-86
2020/12/04 03:30:52;;;;;;;0.60;0.50;;;8.50;99.90;;;;;;5034149;28;20168;-86
2020/12/04 03:33:18;;;;;;;0.50;0.50;;;8.50;99.90;;;;;;5033724;28;20214;-86
2020/12/04 03:35:44;;;;;;;0.87;0.50;;;8.50;99.90;;;;;;5033004;28;20257;-86
2020/12/04 03:38:10;;;;;;;0.57;0.40;;;8.50;99.90;;;;;;5032966;28;20270;-86
2020/12/04 03:40:36;;;;;;;1.30;0.53;;;8.50;99.90;;;;;;5033861;28;20190;-86
2020/12/04 03:43:01;;;;;;;0.80;0.70;;;8.60;99.90;;;;;;5033667;28;20168;-86
2020/12/04 03:45:27;;;;;;;1.83;0.40;;;8.60;99.90;;;;;;5016987;28;20242;-85
2020/12/04 03:47:53;;;;;;;0.97;0.60;;;8.50;99.90;;;;;;5033063;28;20168;-85
2020/12/04 03:50:18;;;;;;;1.73;0.90;;;8.60;99.90;;;;;;5032910;28;20199;-87
2020/12/04 03:52:44;;;;;;;2.13;0.50;;;8.70;99.90;;;;;;5032502;28;20184;-85
2020/12/04 03:55:10;;;;;;;3.67;0.87;;;8.70;99.90;;;;;;5035605;28;20203;-86
2020/12/04 03:57:35;;;;;;;0.50;0.30;;;8.70;99.90;;;;;;5004239;28;20526;-85
2020/12/04 04:00:01;;;;;;;1.07;0.50;;;8.80;99.90;;;;;;5036828;28;20644;-86
2020/12/04 04:02:27;;;;;;;1.60;0.43;;;8.80;99.90;;;;;;5020371;28;20184;-87
2020/12/04 04:04:53;;;;;;;2.22;0.93;;;8.80;99.90;;;;;;5020074;28;20183;-85
2020/12/04 04:07:19;;;;;;;1.70;0.67;;;8.80;99.90;;;;;;5003717;28;20179;-85
2020/12/04 04:09:44;;;;;;;4.88;0.90;;;8.70;99.90;;;;;;5003813;28;20199;-86
2020/12/04 04:12:10;;;;;;;2.07;0.73;;;8.70;99.90;;;;;;5003955;28;20187;-85
2020/12/04 04:14:35;;;;;;;1.07;0.50;;;8.70;99.90;;;;;;5036484;28;20211;-86
2020/12/04 04:17:01;;;;;;;2.30;0.70;;;8.70;99.90;;;;;;5036526;28;20172;-86
2020/12/04 04:19:27;;;;;;;1.40;0.50;;;8.70;99.90;;;;;;5053030;28;20229;-86
2020/12/04 04:21:53;;;;;;;0.57;0.50;;;8.60;99.90;;;;;;5019896;28;20238;-86
2020/12/04 04:24:19;;;;;;;2.75;0.57;;;8.50;99.90;;;;;;5036093;28;20552;-86
2020/12/04 04:26:51;;;;;;;3.30;0.50;;;8.40;99.90;;;;;;5036237;28;20166;-86
2020/12/04 04:29:17;;;;;;;1.30;0.50;;;8.40;99.90;;;;;;5037570;28;20235;-86
2020/12/04 04:31:43;;;;;;;1.77;0.70;;;8.40;99.90;;;;;;5020109;28;20271;-86
2020/12/04 04:34:09;;;;;;;2.40;0.60;;;8.50;99.90;;;;;;5036162;28;20299;-85
2020/12/04 04:36:35;;;;;;;0.90;0.60;;;8.50;99.90;;;;;;5036825;28;20211;-85
2020/12/04 04:39:01;;;;;;;2.57;0.67;;;8.50;99.90;;;;;;5003449;28;20171;-86
2020/12/04 04:41:26;;;;;;;2.77;0.60;;;8.60;99.90;;;;;;5035813;28;20259;-85
2020/12/04 04:43:54;;;;;;;2.30;0.60;;;8.60;99.90;;;;;;5035475;28;20186;-85
2020/12/04 04:46:30;;;;;;;4.83;0.70;;;8.50;99.90;;;;;;5035701;28;20168;-86
2020/12/04 04:48:58;;;;;;;2.53;0.50;;;8.50;99.90;;;;;;5035751;28;20587;-87
2020/12/04 04:51:24;;;;;;;2.43;0.40;;;8.40;99.90;;;;;;5035525;28;20622;-85
2020/12/04 04:53:59;;;;;;;0.73;0.50;;;8.30;99.90;;;;;;5018952;28;20176;-87
2020/12/04 04:56:24;;;;;;;1.13;0.40;;;8.20;99.90;;;;;;5035489;28;20167;-85
2020/12/04 04:58:51;;;;;;;1.43;0.40;;;8.10;99.90;;;;;;5019014;28;20290;-86
2020/12/04 05:01:17;;;;;;;1.53;0.37;;;8.00;99.90;;;;;;5035236;28;20629;-85
2020/12/04 05:03:59;;;;;;;1.50;0.50;;;7.90;99.90;;;;;;5036494;28;20681;-85
2020/12/04 05:06:35;;;;;;;3.73;0.30;;;7.80;99.90;;;;;;5036371;28;20176;-85
2020/12/04 05:09:05;;;;;;;0.90;0.40;;;7.70;99.90;;;;;;5035161;28;20286;-85
2020/12/04 05:11:32;;;;;;;0.67;0.40;;;7.60;99.90;;;;;;5035065;28;20216;-84
2020/12/04 05:14:13;;;;;;;0.87;0.47;;;7.50;99.90;;;;;;5051256;28;20263;-86
2020/12/04 05:16:40;;;;;;;0.83;0.40;;;7.50;99.90;;;;;;5035109;28;20169;-85
2020/12/04 05:19:06;;;;;;;0.83;0.40;;;7.50;99.90;;;;;;5034998;28;20290;-85
2020/12/04 05:21:32;;;;;;;0.57;0.50;;;7.50;99.90;;;;;;5018367;28;20514;-85
2020/12/04 05:23:59;;;;;;;1.80;0.40;;;7.60;99.90;;;;;;5035965;28;20607;-85
2020/12/04 05:26:32;;;;;;;1.07;0.40;;;7.70;99.90;;;;;;5036184;28;20172;-84
2020/12/04 05:28:58;;;;;;;0.30;0.30;;;7.80;99.90;;;;;;5043842;28;20240;-85
2020/12/04 05:31:29;;;;;;;0.40;0.33;;;7.90;99.90;;;;;;5059657;28;20172;-86
2020/12/04 05:33:55;;;;;;;0.37;0.37;;;7.90;99.90;;;;;;5075391;28;20152;-85
2020/12/04 05:36:25;;;;;;;5.37;0.47;;;8.00;99.90;;;;;;5052754;28;20183;-84
2020/12/04 05:38:53;;;;;;;0.80;0.43;;;8.00;99.90;;;;;;5051814;28;20195;-86
2020/12/04 05:41:19;;;;;;;0.50;0.47;;;8.00;99.90;;;;;;5034762;28;20242;-85
2020/12/04 05:43:44;;;;;;;1.57;0.40;;;8.00;99.90;;;;;;5036484;28;20173;-85
2020/12/04 05:46:24;;;;;;;3.70;0.40;;;8.10;99.90;;;;;;5021828;28;20680;-84
2020/12/04 05:49:09;;;;;;;1.53;0.60;;;8.10;99.90;;;;;;5059187;28;20175;-85
2020/12/04 05:51:37;;;;;;;0.70;0.40;;;8.10;99.90;;;;;;5058447;28;20164;-87
2020/12/04 05:54:05;;;;;;;2.90;0.70;;;8.10;99.90;;;;;;5038717;28;20168;-85
2020/12/04 05:56:34;;;;;;;0.73;0.40;;;8.10;99.90;;;;;;5051105;28;20172;-84
2020/12/04 05:59:09;;;;;;;1.83;0.50;;;8.10;99.90;;;;;;5018019;28;20176;-85
2020/12/04 06:01:35;;;;;;;0.67;0.27;;;8.10;99.90;;;;;;5051290;28;20278;-85
2020/12/04 06:04:01;;;;;;;2.27;0.30;;;8.10;99.90;;;;;;5050839;28;20184;-86
2020/12/04 06:06:26;;;;;;;1.87;0.60;;;8.20;99.90;;;;;;5034095;28;20644;-84
2020/12/04 06:08:57;;;;;;;0.67;0.43;;;8.20;99.90;;;;;;5034206;28;20540;-86
2020/12/04 06:11:24;;;;;;;3.60;0.47;;;8.20;99.90;;;;;;5033963;28;20199;-84
2020/12/04 06:13:50;;;;;;;1.90;0.60;;;8.20;99.90;;;;;;5017535;28;20184;-84
2020/12/04 06:16:17;;;;;;;0.43;0.43;;;8.20;99.90;;;;;;5033770;28;20172;-86
2020/12/04 06:18:43;;;;;;;1.20;0.40;;;8.20;99.90;;;;;;5017814;28;20187;-85
2020/12/04 06:21:09;;;;;;;1.10;0.50;;;8.10;99.90;;;;;;5018017;28;20180;-84
2020/12/04 06:23:35;;;;;;;0.70;0.50;;;8.10;99.90;;;;;;5034817;28;20357;-85
2020/12/04 06:26:04;;;;;;;0.77;0.60;;;8.10;99.90;;;;;;5017721;28;20530;-85
2020/12/04 06:28:40;;;;;;;2.20;0.70;;;8.10;99.90;;;;;;5033935;28;20218;-85
2020/12/04 06:31:15;;;;;;;0.73;0.60;;;8.10;99.90;;;;;;5033705;28;20164;-85
2020/12/04 06:33:45;;;;;;;0.90;0.60;;;8.10;99.90;;;;;;5001504;28;20168;-85
2020/12/04 06:36:32;;;;;;;0.40;0.40;;;8.10;99.90;;;;;;5033536;28;20265;-85
2020/12/04 06:38:59;;;;;;;0.50;0.50;;;8.10;99.90;;;;;;5033269;28;20211;-86
2020/12/04 06:41:28;;;;;;;3.07;0.50;;;8.00;99.90;;;;;;5034566;28;20689;-84
2020/12/04 06:44:01;;;;;;;1.07;0.67;;;8.00;99.90;;;;;;5033365;28;20294;-86
2020/12/04 06:46:31;;;;;;;1.17;0.80;;;7.90;99.90;;;;;;5033159;28;20176;-85
2020/12/04 06:49:10;;;;;;;0.70;0.70;;;7.90;99.90;;;;;;5033611;28;20176;-85
2020/12/04 06:51:40;;;;;;;3.80;0.87;;;7.80;99.90;;;;;;5032737;28;20168;-86
2020/12/04 06:54:07;;;;;;;2.10;0.73;;;7.80;99.90;;;;;;5033646;28;20184;-85
2020/12/04 06:56:34;;;;;;;0.57;0.57;;;7.80;99.90;;;;;;5049802;28;20176;-85
2020/12/04 06:59:00;;;;;;;3.90;0.60;;;7.90;99.90;;;;;;5017050;28;20230;-85
2020/12/04 07:01:25;;;;;;;1.00;0.60;;;7.90;99.90;;;;;;5016440;28;20226;-85
2020/12/04 07:03:55;;;;;;;1.13;0.60;;;7.90;99.90;;;;;;5016615;28;20180;-85
2020/12/04 07:06:22;;;;;;;2.67;0.80;;;8.00;99.90;;;;;;5033127;28;20259;-85
2020/12/04 07:08:55;;;;;;;0.60;0.43;;;8.00;99.90;;;;;;5034340;28;20247;-85
2020/12/04 07:11:22;;;;;;;1.73;0.50;;;8.00;99.90;;;;;;5033170;28;20529;-86
2020/12/04 07:13:48;;;;;;;0.30;0.20;;;8.00;99.90;;;;;;5016433;28;20176;-85
2020/12/04 07:16:13;;;;;;;0.73;0.60;;;8.00;99.90;;;;;;5017133;28;20183;-84
2020/12/04 07:18:40;;;;;;;0.53;0.37;;;8.00;99.90;;;;;;5016956;28;20178;-85
2020/12/04 07:21:07;;;;;;;0.40;0.40;;;8.00;99.90;;;;;;5016784;28;20333;-85
2020/12/04 07:23:37;;;;;;;0.40;0.40;;;8.00;99.90;;;;;;5033442;28;20259;-85
2020/12/04 07:26:11;;;;;;;0.50;0.40;;;7.90;99.90;;;;;;5035429;28;20261;-85
2020/12/04 07:28:37;;;;;;;0.40;0.40;;;7.90;99.90;;;;;;5032564;28;20160;-85
2020/12/04 07:31:03;;;;;;;1.30;0.50;;;7.90;99.90;;;;;;5033382;28;20545;-84
2020/12/04 07:33:28;;;;;;;0.60;0.43;;;7.90;99.90;;;;;;5033404;28;20168;-85
2020/12/04 07:36:04;;;;;;;1.70;0.60;;;7.90;99.90;;;;;;5033293;28;20346;-87
2020/12/04 07:38:30;;;;;;;1.37;0.70;;;7.90;99.90;;;;;;5033250;28;20167;-86
2020/12/04 07:40:56;;;;;;;0.87;0.60;;;7.90;99.90;;;;;;5032923;28;20327;-86
2020/12/04 07:43:22;;;;;;;0.60;0.60;;;8.00;99.90;;;;;;5033008;28;20298;-85
2020/12/04 07:45:56;;;;;;;1.00;0.50;;;8.00;99.90;;;;;;5032636;28;20244;-85
2020/12/04 07:48:21;;;;;;;0.70;0.70;;;8.00;99.90;;;;;;5049291;28;20654;-85
2020/12/04 07:50:47;;;;;;;1.03;0.73;;;7.90;99.90;;;;;;5016842;28;20261;-84
2020/12/04 07:53:13;;;;;;;0.60;0.60;;;7.90;99.90;;;;;;5033334;28;20172;-84
2020/12/04 07:55:40;;;;;;;0.50;0.50;;;7.90;99.90;;;;;;5044206;28;20191;-86
2020/12/04 07:58:14;;;;;;;0.47;0.47;;;7.90;99.90;;;;;;5057175;28;20160;-89
2020/12/04 08:00:43;;;;;;;4.83;0.70;;;7.80;99.90;;;;;;5057877;28;20194;-87
2020/12/04 08:03:11;;;;;;;3.43;0.83;;;7.90;99.90;;;;;;5028565;28;20271;-86
2020/12/04 08:05:38;;;;;;;0.50;0.50;;;7.90;99.90;;;;;;5033022;28;20176;-86
2020/12/04 08:08:04;;;;;;;0.50;0.50;;;7.90;99.90;;;;;;5017046;28;20179;-87
2020/12/04 08:10:30;;;;;;;0.77;0.57;;;7.90;99.90;;;;;;5032629;28;20602;-86
2020/12/04 08:12:57;;;;;;;3.50;0.60;;;7.90;99.90;;;;;;5018139;28;20533;-76
2020/12/04 08:15:23;;;;;;;3.53;0.50;;;7.90;99.90;;;;;;5033892;28;20204;-77
2020/12/04 08:18:03;;;;;;;3.53;0.77;;;7.90;99.90;;;;;;5049890;28;20198;-76
2020/12/04 08:20:29;;;;;;;0.60;0.60;;;8.00;99.90;;;;;;5035068;28;20164;-76
2020/12/04 08:22:54;;;;;;;0.43;0.40;;;8.00;99.90;;;;;;5033250;28;20188;-77
2020/12/04 08:25:40;;;;;;;2.07;0.97;;;8.00;99.90;;;;;;5031180;28;20200;-76
2020/12/04 08:28:05;;;;;;;4.00;0.80;;;8.00;99.90;;;;;;5032484;28;20164;-76
2020/12/04 08:30:32;;;;;;;0.97;0.83;;;8.00;99.90;;;;;;5032061;28;20184;-77
2020/12/04 08:33:03;;;;;;;1.40;0.80;;;8.00;99.90;;;;;;5033095;28;20171;-79
2020/12/04 08:35:40;;;;;;;1.40;0.80;;;8.00;99.90;;;;;;5032821;28;20195;-84
2020/12/04 08:38:08;;;;;;;0.50;0.50;;;8.10;99.90;;;;;;5031536;28;20168;-83
2020/12/04 08:40:35;;;;;;;0.93;0.57;;;8.10;99.90;;;;;;5034500;28;20172;-83
2020/12/04 08:43:18;;;;;;;1.03;0.70;;;8.20;99.90;;;;;;5019036;28;20176;-83
2020/12/04 08:45:50;;;;;;;3.20;0.80;;;8.10;99.90;;;;;;5018807;28;20625;-84
2020/12/04 08:48:21;;;;;;;3.23;0.70;;;8.00;99.90;;;;;;5035397;28;20178;-83
2020/12/04 08:51:00;;;;;;;0.70;0.70;;;8.00;99.90;;;;;;5036919;28;20164;-84
2020/12/04 08:53:26;;;;;;;7.13;0.50;;;8.00;99.90;;;;;;5035845;28;20155;-83
2020/12/04 08:55:54;;;;;;;2.00;0.70;;;8.10;99.90;;;;;;5034967;28;20208;-83
2020/12/04 08:58:21;;;;;;;3.87;0.70;;;8.00;99.90;;;;;;5018760;28;20200;-82
2020/12/04 09:00:49;;;;;;;3.90;0.77;;;7.90;99.90;;;;;;5003430;28;20184;-83
2020/12/04 09:03:16;;;;;;;2.10;0.60;;;7.90;99.90;;;;;;5036523;28;20169;-84
2020/12/04 09:05:42;;;;;;;3.17;0.63;;;7.80;99.90;;;;;;5018430;28;20179;-83
2020/12/04 09:08:08;;;;;;;0.40;0.40;;;7.90;99.90;;;;;;5034842;28;20180;-83
2020/12/04 09:10:34;;;;;;;0.60;0.60;;;7.90;99.90;;;;;;5025135;28;20516;-83
2020/12/04 09:13:00;;;;;;;0.90;0.60;;;8.00;99.90;;;;;;5033851;28;20238;-84
2020/12/04 09:15:27;;;;;;;1.90;0.90;;;7.90;99.90;;;;;;5018115;28;20644;-83
2020/12/04 09:17:53;;;;;;;2.23;0.80;;;7.80;99.90;;;;;;5035107;28;20595;-83
2020/12/04 09:20:19;;;;;;;2.37;0.70;;;7.80;99.90;;;;;;5035338;28;20175;-83
2020/12/04 09:22:45;;;;;;;0.70;0.70;;;7.80;99.90;;;;;;5034823;28;20527;-84
2020/12/04 09:25:13;;;;;;;0.73;0.73;;;7.70;99.90;;;;;;5035806;28;20184;-83
2020/12/04 09:27:39;;;;;;;0.60;0.60;;;7.70;99.90;;;;;;5018055;28;20530;-83
2020/12/04 09:30:07;;;;;;;3.60;0.50;;;7.60;99.90;;;;;;5051278;28;20179;-85
2020/12/04 09:32:33;;;;;;;1.33;0.60;;;7.70;99.90;;;;;;5050983;28;20168;-83
2020/12/04 09:34:59;;;;;;;2.30;0.63;;;7.70;99.90;;;;;;5050348;28;20597;-84
2020/12/04 09:37:30;;;;;;;0.50;0.50;;;7.80;99.90;;;;;;5034937;28;20253;-84
2020/12/04 09:39:58;;;;;;;1.53;0.60;;;7.80;99.90;;;;;;5034463;28;20200;-85
2020/12/04 09:42:25;;;;;;;0.50;0.50;;;7.80;99.90;;;;;;5035356;28;20503;-84
2020/12/04 09:44:52;;;;;;;0.60;0.60;;;7.80;99.90;;;;;;5034108;28;20180;-84
2020/12/04 09:47:19;;;;;;;0.70;0.70;;;7.70;99.90;;;;;;5050948;28;20172;-84
2020/12/04 09:49:45;;;;;;;0.60;0.60;;;7.90;99.90;;;;;;5033923;28;20172;-84
2020/12/04 09:52:12;;;;;;;0.50;0.50;;;8.00;99.90;;;;;;5034194;28;20168;-84
2020/12/04 09:54:40;;;;;;;0.70;0.50;;;8.10;99.90;;;;;;5034565;28;20698;-85
2020/12/04 09:57:07;;;;;;;0.47;0.47;;;8.60;99.90;;;;;;5037081;28;20267;-83
2020/12/04 09:59:33;;;;;;;2.60;0.87;;;8.50;99.90;;;;;;5034270;28;20176;-84
2020/12/04 10:01:59;;;;;;;0.80;0.80;;;8.50;99.90;;;;;;5036057;28;20214;-84
2020/12/04 10:04:25;;;;;;;1.57;0.90;;;8.40;99.90;;;;;;5034866;28;20174;-84
2020/12/04 10:06:52;;;;;;;0.60;0.60;;;8.50;99.90;;;;;;5033850;28;20180;-84
2020/12/04 10:09:19;;;;;;;0.63;0.63;;;8.50;99.90;;;;;;5033958;28;20172;-81
2020/12/04 10:11:46;;;;;;;3.63;0.80;;;8.20;99.90;;;;;;5034859;28;20584;-78
2020/12/04 10:14:13;;;;;;;1.77;0.77;;;8.10;99.90;;;;;;5034911;28;20191;-79
2020/12/04 10:16:40;;;;;;;1.00;1.00;;;8.20;99.90;;;;;;5034426;28;20535;-79
2020/12/04 10:19:05;;;;;;;1.50;0.80;;;8.80;99.90;;;;;;5034406;28;20180;-78
2020/12/04 10:21:36;;;;;;;1.23;0.93;;;9.20;99.90;;;;;;5034895;28;20274;-78
2020/12/04 10:24:03;;;;;;;0.93;0.93;;;9.10;99.90;;;;;;5035422;28;20164;-78
2020/12/04 10:26:29;;;;;;;0.73;0.73;;;8.90;99.90;;;;;;5041391;28;20171;-79
2020/12/04 10:28:55;;;;;;;1.00;1.00;;;8.90;99.90;;;;;;5044361;28;20689;-79
2020/12/04 10:31:21;;;;;;;1.00;1.00;;;8.90;99.90;;;;;;5034645;28;20336;-78
2020/12/04 10:33:47;;;;;;;0.83;0.83;;;9.10;99.90;;;;;;5033483;28;20172;-80
2020/12/04 10:36:13;;;;;;;1.37;0.93;;;9.20;99.90;;;;;;5034516;28;20291;-79
2020/12/04 10:38:39;;;;;;;0.90;0.90;;;9.30;99.90;;;;;;5033446;28;20180;-79
2020/12/04 10:41:05;;;;;;;3.20;0.93;;;9.50;99.90;;;;;;5035093;28;20263;-79
2020/12/04 10:43:30;;;;;;;0.83;0.83;;;9.40;99.90;;;;;;5037541;28;20203;-78
2020/12/04 10:45:56;;;;;;;1.10;1.00;;;9.10;99.90;;;;;;5039633;28;20180;-79
2020/12/04 10:48:22;;;;;;;1.13;1.10;;;8.70;99.90;;;;;;5033588;28;20586;-78
2020/12/04 10:50:48;;;;;;;1.23;0.87;;;8.50;99.90;;;;;;5022808;28;20229;-80
2020/12/04 10:53:14;;;;;;;1.20;0.90;;;8.40;99.90;;;;;;5031849;28;20649;-78
2020/12/04 10:55:44;;;;;;;1.07;0.90;;;8.40;99.90;;;;;;5033733;28;20295;-79
2020/12/04 10:58:13;;;;;;;1.20;1.00;;;8.30;99.90;;;;;;5032205;28;20255;-79
2020/12/04 11:00:38;;;;;;;2.13;1.17;;;8.30;99.90;;;;;;5033991;28;20168;-79
2020/12/04 11:05:51;;;;;;;1.17;1.00;;;8.10;99.90;;;;;;4992419;28;20192;-79
2020/12/04 11:08:16;;;;;;;2.80;1.30;;;8.10;99.90;;;;;;5033875;28;20225;-79
2020/12/04 11:10:43;;;;;;;1.17;1.07;;;8.20;99.90;;;;;;5032497;28;20267;-79
2020/12/04 11:13:09;;;;;;;2.27;1.03;;;8.20;99.90;;;;;;5033184;28;20167;-78
2020/12/04 11:15:35;;;;;;;1.00;0.90;;;8.30;99.90;;;;;;5033277;28;20208;-78
2020/12/04 11:18:01;;;;;;;0.73;0.70;;;8.40;99.90;;;;;;5033401;28;20176;-81
2020/12/04 11:20:27;;;;;;;2.50;0.80;;;8.40;99.90;;;;;;5032705;28;20274;-80
2020/12/04 11:22:53;;;;;;;1.03;0.90;;;8.50;99.90;;;;;;5033768;28;20174;-79
2020/12/04 11:25:19;;;;;;;1.43;0.87;;;8.60;99.90;;;;;;5032146;28;20188;-79
2020/12/04 11:27:46;;;;;;;0.87;0.87;;;8.70;99.90;;;;;;5033200;28;20168;-78
2020/12/04 11:30:13;;;;;;;1.23;0.80;;;8.80;99.90;;;;;;5033658;28;20174;-79
2020/12/04 11:32:43;;;;;;;0.80;0.70;;;8.80;99.90;;;;;;5033571;28;20263;-79
2020/12/04 11:35:10;;;;;;;0.87;0.87;;;8.80;99.90;;;;;;5032972;28;20200;-79
2020/12/04 11:37:40;;;;;;;1.00;0.87;;;8.60;99.90;;;;;;5032204;28;21021;-79
2020/12/04 11:40:08;;;;;;;1.63;1.00;;;8.70;99.90;;;;;;5033301;28;20581;-79
2020/12/04 11:42:37;;;;;;;3.03;0.80;;;8.60;99.90;;;;;;5032841;28;20621;-79
2020/12/04 11:45:04;;;;;;;3.80;1.00;;;8.40;99.90;;;;;;5033629;28;20184;-80
2020/12/04 11:47:29;;;;;;;0.80;0.70;;;8.40;99.90;;;;;;5033094;28;20575;-79
2020/12/04 11:49:55;;;;;;;0.90;0.83;;;8.40;99.90;;;;;;5034155;28;20310;-77
2020/12/04 11:52:21;;;;;;;0.97;0.70;;;8.50;99.90;;;;;;5032945;28;20179;-78
2020/12/04 11:54:47;;;;;;;0.90;0.70;;;8.40;99.90;;;;;;5032000;28;20576;-79
2020/12/04 11:57:13;;;;;;;1.10;0.80;;;8.40;99.90;;;;;;5033014;28;20168;-78
2020/12/04 11:59:39;;;;;;;2.20;0.90;;;8.60;99.90;;;;;;5032942;28;20259;-79
2020/12/04 12:02:05;;;;;;;0.70;0.60;;;9.90;99.90;;;;;;5033487;28;20719;-79
2020/12/04 12:04:31;;;;;;;2.22;0.80;;;11.40;99.90;;;;;;5048279;28;20176;-78
2020/12/04 12:06:57;;;;;;;2.85;0.65;;;11.50;99.90;;;;;;5033228;28;20217;-78
2020/12/04 12:09:23;;;;;;;1.40;0.70;;;11.30;99.90;;;;;;5032607;28;20168;-79
2020/12/04 12:11:48;;;;;;;0.75;0.75;;;11.20;99.90;;;;;;5031721;28;20168;-77
2020/12/04 12:14:14;;;;;;;0.75;0.70;;;12.20;99.90;;;;;;5033135;28;20268;-77
2020/12/04 12:16:44;;;;;;;0.35;0.35;;;12.20;99.90;;;;;;5036267;28;20633;-77
2020/12/04 12:19:10;;;;;;;8.02;0.80;;;12.30;99.90;;;;;;5035437;28;20200;-77
2020/12/04 12:21:36;;;;;;;3.63;0.80;;;12.50;99.90;;;;;;5036790;28;20593;-77
2020/12/04 12:24:02;;;;;;;2.15;0.70;;;13.00;99.90;;;;;;5035947;28;20164;-78
2020/12/04 12:26:28;;;;;;;3.25;0.90;;;13.60;99.90;;;;;;5036209;28;20168;-77
2020/12/04 12:28:53;;;;;;;0.73;0.50;;;12.60;99.90;;;;;;5035842;28;20271;-78
2020/12/04 12:31:19;;;;;;;1.17;0.70;;;11.50;99.90;;;;;;5036878;28;20179;-77
2020/12/04 12:33:48;;;;;;;1.38;0.65;;;10.80;99.90;;;;;;5036899;28;20196;-77
2020/12/04 12:36:14;;;;;;;1.40;0.57;;;10.50;99.90;;;;;;5036786;28;20688;-77
2020/12/04 12:38:40;;;;;;;2.15;0.60;;;10.60;99.90;;;;;;5037241;28;20211;-77
2020/12/04 12:41:05;;;;;;;2.30;0.60;;;10.40;99.90;;;;;;5035463;28;20204;-78
2020/12/04 12:43:32;;;;;;;1.15;0.70;;;10.70;99.90;;;;;;5036764;28;20609;-77
2020/12/04 12:45:57;;;;;;;0.70;0.70;;;10.80;99.90;;;;;;5036518;28;20196;-77
2020/12/04 12:48:23;;;;;;;1.27;0.57;;;11.30;99.90;;;;;;5036781;28;20208;-77
2020/12/04 12:50:48;;;;;;;2.30;0.85;;;10.70;99.90;;;;;;5038208;28;20172;-78
2020/12/04 12:53:14;;;;;;;0.80;0.45;;;11.20;99.90;;;;;;5045716;28;20585;-78
2020/12/04 12:55:40;;;;;;;3.03;0.65;;;11.50;99.90;;;;;;5038576;28;20208;-78
2020/12/04 12:58:05;;;;;;;3.60;0.80;;;10.50;99.90;;;;;;5036247;28;20637;-77